createdAt,value
2023-09-27T00:00:35.441Z,90.52
2023-09-27T00:04:49.620Z,90.69
2023-09-27T00:08:47.453Z,90.91
2023-09-27T00:12:45.454Z,90.94
2023-09-27T00:16:43.596Z,90.96
2023-09-27T00:20:41.455Z,90.94
2023-09-27T00:24:39.507Z,91.18
2023-09-27T00:28:37.493Z,91.32
2023-09-27T00:32:35.513Z,91.41
2023-09-27T00:36:33.466Z,91.49
2023-09-27T00:40:32.575Z,91.48
2023-09-27T00:44:30.523Z,91.56
2023-09-27T00:48:28.495Z,91.59
2023-09-27T00:52:28.420Z,91.62
2023-09-27T00:56:26.449Z,91.60
2023-09-27T01:00:26.479Z,91.58
2023-09-27T01:04:24.394Z,91.56
2023-09-27T01:08:22.634Z,91.54
2023-09-27T01:12:20.383Z,91.50
2023-09-27T01:16:18.493Z,91.47
2023-09-27T01:20:16.443Z,91.45
2023-09-27T01:24:15.407Z,91.45
2023-09-27T01:28:15.390Z,91.41
2023-09-27T01:32:13.431Z,91.40
2023-09-27T01:36:12.339Z,91.41
2023-09-27T01:40:15.567Z,91.40
2023-09-27T01:44:13.367Z,91.37
2023-09-27T01:48:12.435Z,91.31
2023-09-27T01:52:10.387Z,91.29
2023-09-27T01:56:08.416Z,91.28
2023-09-27T02:00:06.482Z,91.24
2023-09-27T02:04:05.579Z,91.18
2023-09-27T02:08:03.364Z,91.18
2023-09-27T02:12:01.418Z,91.15
2023-09-27T02:15:59.367Z,91.10
2023-09-27T02:19:57.386Z,91.11
2023-09-27T02:23:55.336Z,91.10
2023-09-27T02:27:54.332Z,91.06
2023-09-27T02:31:52.331Z,90.99
2023-09-27T02:35:52.333Z,90.96
2023-09-27T02:39:50.281Z,91.03
2023-09-27T02:43:48.324Z,91.11
2023-09-27T02:47:46.392Z,91.35
2023-09-27T02:51:44.439Z,91.58
2023-09-27T02:55:42.275Z,91.87
2023-09-27T02:59:40.355Z,91.84
2023-09-27T03:03:38.333Z,91.64
2023-09-27T03:07:36.292Z,91.81
2023-09-27T03:11:34.307Z,91.74
2023-09-27T03:15:32.430Z,91.82
2023-09-27T03:19:30.300Z,92.02
2023-09-27T03:23:28.403Z,92.10
2023-09-27T03:27:26.243Z,92.10
2023-09-27T03:31:24.368Z,92.07
2023-09-27T03:35:22.280Z,92.16
2023-09-27T03:39:20.276Z,92.27
2023-09-27T03:43:18.217Z,92.31
2023-09-27T03:47:16.360Z,92.37
2023-09-27T03:51:15.229Z,92.40
2023-09-27T03:55:13.329Z,92.45
2023-09-27T03:59:31.229Z,92.49
2023-09-27T04:03:29.406Z,92.52
2023-09-27T04:07:28.253Z,92.50
2023-09-27T04:11:26.267Z,92.46
2023-09-27T04:15:25.278Z,92.38
2023-09-27T04:19:23.285Z,92.34
2023-09-27T04:23:21.243Z,92.30
2023-09-27T04:27:19.235Z,92.34
2023-09-27T04:31:17.282Z,92.33
2023-09-27T04:35:16.425Z,92.33
2023-09-27T04:39:15.204Z,92.31
2023-09-27T04:43:13.215Z,92.27
2023-09-27T04:47:11.280Z,92.28
2023-09-27T04:51:09.182Z,92.27
2023-09-27T04:55:11.208Z,92.24
2023-09-27T04:59:09.303Z,92.17
2023-09-27T05:03:07.191Z,92.11
2023-09-27T05:07:05.177Z,92.12
2023-09-27T05:11:04.172Z,92.09
2023-09-27T05:15:02.165Z,92.02
2023-09-27T05:19:00.114Z,91.93
2023-09-27T05:22:59.293Z,91.80
2023-09-27T05:26:57.199Z,91.57
2023-09-27T05:30:55.293Z,91.35
2023-09-27T05:34:53.112Z,91.01
2023-09-27T05:38:52.377Z,90.74
2023-09-27T05:42:50.144Z,90.50
2023-09-27T05:46:48.267Z,90.14
2023-09-27T05:50:46.115Z,89.76
2023-09-27T05:54:44.119Z,89.34
2023-09-27T05:58:42.095Z,88.73
2023-09-27T06:02:21.398Z,87.62
2023-09-27T06:05:45.346Z,86.94
2023-09-27T06:09:10.846Z,86.41
2023-09-27T06:12:34.749Z,85.54
2023-09-27T06:16:00.064Z,85.39
2023-09-27T06:19:24.132Z,84.84
2023-09-27T06:22:50.351Z,83.85
2023-09-27T06:26:14.220Z,82.57
2023-09-27T06:29:38.210Z,82.83
2023-09-27T06:33:02.759Z,82.08
2023-09-27T06:36:31.006Z,81.33
2023-09-27T06:39:54.944Z,80.54
2023-09-27T06:43:18.775Z,79.95
2023-09-27T06:50:10.815Z,78.22
2023-09-27T06:53:38.005Z,77.04
2023-09-27T06:57:01.897Z,77.31
2023-09-27T07:00:26.226Z,76.91
2023-09-27T07:03:50.967Z,76.78
2023-09-27T07:07:14.904Z,75.81
2023-09-27T07:10:39.070Z,74.72
2023-09-27T07:14:02.976Z,74.87
2023-09-27T07:17:27.116Z,75.67
2023-09-27T07:20:52.055Z,73.08
2023-09-27T07:24:16.096Z,72.75
2023-09-27T07:27:41.973Z,72.45
2023-09-27T07:31:06.895Z,71.78
2023-09-27T07:34:31.890Z,71.66
2023-09-27T07:37:55.900Z,70.89
2023-09-27T07:41:19.809Z,70.71
2023-09-27T07:44:44.230Z,70.80
2023-09-27T07:48:08.225Z,70.00
2023-09-27T07:51:32.560Z,69.51
2023-09-27T07:54:59.570Z,69.38
2023-09-27T07:58:23.962Z,69.40
2023-09-27T08:01:47.937Z,68.72
2023-09-27T08:05:12.093Z,67.84
2023-09-27T08:08:37.210Z,67.33
2023-09-27T08:12:01.131Z,66.59
2023-09-27T08:15:24.999Z,65.95
2023-09-27T08:18:49.030Z,66.39
2023-09-27T08:22:13.095Z,65.13
2023-09-27T08:25:38.538Z,65.62
2023-09-27T08:29:02.836Z,65.53
2023-09-27T08:32:27.165Z,64.44
2023-09-27T08:35:54.815Z,64.79
2023-09-27T08:39:19.877Z,64.69
2023-09-27T08:42:45.404Z,62.76
2023-09-27T08:46:09.860Z,62.64
2023-09-27T08:49:34.051Z,61.89
2023-09-27T08:52:58.273Z,61.35
2023-09-27T08:56:23.441Z,61.03
2023-09-27T08:59:47.513Z,60.09
2023-09-27T09:03:12.671Z,59.59
2023-09-27T09:06:37.671Z,59.14
2023-09-27T09:10:01.828Z,59.26
2023-09-27T09:13:25.821Z,59.83
2023-09-27T09:16:54.360Z,59.69
2023-09-27T09:20:22.913Z,59.80
2023-09-27T09:23:50.645Z,58.54
2023-09-27T09:27:17.896Z,57.98
2023-09-27T09:30:46.548Z,57.67
2023-09-27T09:34:12.982Z,57.02
2023-09-27T09:37:36.863Z,56.50
2023-09-27T09:41:02.901Z,56.81
2023-09-27T09:44:27.706Z,57.33
2023-09-27T09:47:53.252Z,56.22
2023-09-27T09:51:18.278Z,56.26
2023-09-27T09:54:48.938Z,55.72
2023-09-27T09:58:36.186Z,56.07
2023-09-27T10:02:05.645Z,55.31
2023-09-27T10:05:39.834Z,55.51
2023-09-27T10:09:06.846Z,55.38
2023-09-27T10:12:31.271Z,55.26
2023-09-27T10:15:55.883Z,53.70
2023-09-27T10:19:30.765Z,53.68
2023-09-27T10:22:55.136Z,53.22
2023-09-27T10:26:28.416Z,53.83
2023-09-27T10:29:59.489Z,52.55
2023-09-27T10:33:30.442Z,53.15
2023-09-27T10:37:14.943Z,52.48
2023-09-27T10:40:43.613Z,51.10
2023-09-27T10:44:07.577Z,51.55
2023-09-27T10:47:31.588Z,50.21
2023-09-27T10:50:57.689Z,49.66
2023-09-27T10:54:30.511Z,47.98
2023-09-27T10:57:55.933Z,46.93
2023-09-27T11:01:23.945Z,45.98
2023-09-27T11:04:57.366Z,45.77
2023-09-27T11:08:30.432Z,47.29
2023-09-27T11:11:56.501Z,45.77
2023-09-27T11:15:24.679Z,44.85
2023-09-27T11:18:50.805Z,44.16
2023-09-27T11:22:26.151Z,43.95
2023-09-27T11:25:50.719Z,43.58
2023-09-27T11:29:14.681Z,44.28
2023-09-27T11:32:52.027Z,43.15
2023-09-27T11:36:16.258Z,42.14
2023-09-27T11:39:52.310Z,41.99
2023-09-27T11:43:16.297Z,41.84
2023-09-27T11:46:40.194Z,42.25
2023-09-27T11:50:04.041Z,42.80
2023-09-27T11:53:28.017Z,42.01
2023-09-27T11:56:52.025Z,41.61
2023-09-27T12:00:16.980Z,41.63
2023-09-27T12:03:42.051Z,41.38
2023-09-27T12:07:06.236Z,39.81
2023-09-27T12:10:30.322Z,40.38
2023-09-27T12:13:54.472Z,40.17
2023-09-27T12:17:18.752Z,40.87
2023-09-27T12:20:44.558Z,40.71
2023-09-27T12:24:09.836Z,40.85
2023-09-27T12:27:33.854Z,40.21
2023-09-27T12:30:57.769Z,40.61
2023-09-27T12:34:21.883Z,40.46
2023-09-27T12:37:45.720Z,40.27
2023-09-27T12:41:10.372Z,39.97
2023-09-27T12:44:34.465Z,38.48
2023-09-27T12:47:58.959Z,37.95
2023-09-27T12:51:26.849Z,39.18
2023-09-27T12:54:59.000Z,38.38
2023-09-27T12:58:23.275Z,37.44
2023-09-27T13:01:47.396Z,37.82
2023-09-27T13:05:11.390Z,38.52
2023-09-27T13:08:35.619Z,37.42
2023-09-27T13:11:59.553Z,35.77
2023-09-27T13:15:23.492Z,36.67
2023-09-27T13:18:47.976Z,36.75
2023-09-27T13:22:12.279Z,37.90
2023-09-27T13:25:36.145Z,37.50
2023-09-27T13:29:00.052Z,38.81
2023-09-27T13:32:43.783Z,37.99
2023-09-27T13:36:41.819Z,38.02
2023-09-27T13:40:39.719Z,38.50
2023-09-27T13:44:37.849Z,39.23
2023-09-27T13:48:35.759Z,38.63
2023-09-27T13:52:33.729Z,38.71
2023-09-27T13:56:31.758Z,38.60
2023-09-27T14:00:29.721Z,39.17
2023-09-27T14:04:27.658Z,38.47
2023-09-27T14:08:25.722Z,38.33
2023-09-27T14:12:23.689Z,38.94
2023-09-27T14:16:22.841Z,38.78
2023-09-27T14:20:23.726Z,39.50
2023-09-27T14:24:21.731Z,39.70
2023-09-27T14:28:19.698Z,40.06
2023-09-27T14:32:18.813Z,40.28
2023-09-27T14:36:18.650Z,39.21
2023-09-27T14:40:17.710Z,39.96
2023-09-27T14:44:15.684Z,39.98
2023-09-27T14:48:13.798Z,39.99
2023-09-27T14:52:11.664Z,40.80
2023-09-27T14:56:29.668Z,41.48
2023-09-27T15:00:30.663Z,41.76
2023-09-27T15:04:28.786Z,42.02
2023-09-27T15:08:26.629Z,43.01
2023-09-27T15:12:24.689Z,43.67
2023-09-27T15:16:23.762Z,44.43
2023-09-27T15:20:22.674Z,45.43
2023-09-27T15:24:20.636Z,45.31
2023-09-27T15:28:18.843Z,45.69
2023-09-27T15:32:16.652Z,45.81
2023-09-27T15:36:14.621Z,45.94
2023-09-27T15:40:12.586Z,46.32
2023-09-27T15:44:10.665Z,46.85
2023-09-27T15:48:08.639Z,47.66
2023-09-27T15:52:06.739Z,47.92
2023-09-27T15:56:04.591Z,48.57
2023-09-27T16:00:02.701Z,48.54
2023-09-27T16:04:03.608Z,48.99
2023-09-27T16:08:01.660Z,49.67
2023-09-27T16:11:59.559Z,49.69
2023-09-27T16:15:58.670Z,50.30
2023-09-27T16:19:56.648Z,51.44
2023-09-27T16:23:56.739Z,51.20
2023-09-27T16:27:55.610Z,52.03
2023-09-27T16:31:54.684Z,52.56
2023-09-27T16:35:52.552Z,53.15
2023-09-27T16:39:50.659Z,53.38
2023-09-27T16:43:48.620Z,53.47
2023-09-27T16:47:47.605Z,54.65
2023-09-27T16:51:45.588Z,55.53
2023-09-27T16:55:43.806Z,54.93
2023-09-27T16:59:41.564Z,55.24
2023-09-27T17:03:39.761Z,56.17
2023-09-27T17:07:40.646Z,57.09
2023-09-27T17:11:40.590Z,56.88
2023-09-27T17:15:38.529Z,57.47
2023-09-27T17:19:23.958Z,57.89
2023-09-27T17:22:48.539Z,58.12
2023-09-27T17:26:13.268Z,58.17
2023-09-27T17:29:37.635Z,58.34
2023-09-27T17:33:01.676Z,58.72
2023-09-27T17:36:25.725Z,58.72
2023-09-27T17:39:49.971Z,58.95
2023-09-27T17:43:13.931Z,59.66
2023-09-27T17:46:37.966Z,59.77
2023-09-27T17:50:02.248Z,59.87
2023-09-27T17:53:26.393Z,60.26
2023-09-27T17:56:51.663Z,60.41
2023-09-27T18:00:16.153Z,60.98
2023-09-27T18:03:40.382Z,61.40
2023-09-27T18:07:04.329Z,61.68
2023-09-27T18:10:30.304Z,61.91
2023-09-27T18:13:55.102Z,62.63
2023-09-27T18:17:19.451Z,64.50
2023-09-27T18:20:43.946Z,66.03
2023-09-27T18:24:08.318Z,64.94
2023-09-27T18:27:32.245Z,65.24
2023-09-27T18:30:56.962Z,65.34
2023-09-27T18:34:20.834Z,65.60
2023-09-27T18:37:44.875Z,66.50
2023-09-27T18:41:08.986Z,66.79
2023-09-27T18:44:33.124Z,66.55
2023-09-27T18:47:58.598Z,67.05
2023-09-27T18:51:23.763Z,67.10
2023-09-27T18:54:49.037Z,67.25
2023-09-27T18:58:14.817Z,67.19
2023-09-27T19:01:39.292Z,67.46
2023-09-27T19:05:03.772Z,68.02
2023-09-27T19:08:28.397Z,68.16
2023-09-27T19:11:54.462Z,68.92
2023-09-27T19:15:18.744Z,69.44
2023-09-27T19:18:42.705Z,70.58
2023-09-27T19:22:06.898Z,72.66
2023-09-27T19:25:31.003Z,72.91
2023-09-27T19:28:55.045Z,73.41
2023-09-27T19:32:20.105Z,72.92
2023-09-27T19:35:44.536Z,72.22
2023-09-27T19:39:09.785Z,72.05
2023-09-27T19:42:33.719Z,71.95
2023-09-27T19:45:57.767Z,72.07
2023-09-27T19:49:21.913Z,72.44
2023-09-27T19:52:46.531Z,73.98
2023-09-27T19:56:12.632Z,76.74
2023-09-27T19:59:36.730Z,78.02
2023-09-27T20:03:00.802Z,78.26
2023-09-27T20:06:25.390Z,78.43
2023-09-27T20:09:49.718Z,77.83
2023-09-27T20:13:33.395Z,77.02
2023-09-27T20:17:31.417Z,76.45
2023-09-27T20:21:29.388Z,76.58
2023-09-27T20:25:27.381Z,75.98
2023-09-27T20:29:25.388Z,76.36
2023-09-27T20:33:23.362Z,75.74
2023-09-27T20:37:21.376Z,75.93
2023-09-27T20:41:19.383Z,76.25
2023-09-27T20:45:17.376Z,75.96
2023-09-27T20:49:15.465Z,76.19
2023-09-27T20:53:13.339Z,78.03
2023-09-27T20:57:11.646Z,79.44
2023-09-27T21:01:14.457Z,80.87
2023-09-27T21:05:12.386Z,81.67
2023-09-27T21:09:19.284Z,82.02
2023-09-27T21:13:17.338Z,81.73
2023-09-27T21:17:15.330Z,81.88
2023-09-27T21:21:13.286Z,81.67
2023-09-27T21:25:11.293Z,81.10
2023-09-27T21:29:09.333Z,80.32
2023-09-27T21:33:07.360Z,79.38
2023-09-27T21:37:05.332Z,79.43
2023-09-27T21:41:04.357Z,78.89
2023-09-27T21:45:02.307Z,78.54
2023-09-27T21:49:01.255Z,78.68
2023-09-27T21:52:59.394Z,79.00
2023-09-27T21:56:58.289Z,78.93
2023-09-27T22:00:56.353Z,79.26
2023-09-27T22:04:54.261Z,79.36
2023-09-27T22:09:00.300Z,79.93
2023-09-27T22:13:00.258Z,80.52
2023-09-27T22:16:58.350Z,81.32
2023-09-27T22:20:57.235Z,80.96
2023-09-27T22:24:55.292Z,82.65
2023-09-27T22:28:53.241Z,82.63
2023-09-27T22:32:51.352Z,82.64
2023-09-27T22:36:54.329Z,82.66
2023-09-27T22:40:53.294Z,82.99
2023-09-27T22:44:51.237Z,83.02
2023-09-27T22:48:49.256Z,82.84
2023-09-27T22:52:50.231Z,82.36
2023-09-27T22:56:49.244Z,82.43
2023-09-27T23:00:48.210Z,83.28
2023-09-27T23:04:46.311Z,83.24
2023-09-27T23:08:45.180Z,83.52
2023-09-27T23:12:44.204Z,83.54
2023-09-27T23:16:53.185Z,83.71
2023-09-27T23:20:51.228Z,83.73
2023-09-27T23:24:50.170Z,83.66
2023-09-27T23:28:51.232Z,83.61
2023-09-27T23:32:49.229Z,83.47
2023-09-27T23:36:47.188Z,83.50
2023-09-27T23:40:49.216Z,83.66
2023-09-27T23:44:47.178Z,83.60
2023-09-27T23:48:45.152Z,83.97
2023-09-27T23:52:48.457Z,84.14
2023-09-27T23:56:46.120Z,84.16
